createdAt,value
2022-08-17T00:02:25.506Z,23.26
2022-08-17T00:04:53.862Z,23.23
2022-08-17T00:07:20.618Z,23.25
2022-08-17T00:09:47.292Z,23.23
2022-08-17T00:12:43.565Z,23.19
2022-08-17T00:15:01.340Z,23.18
2022-08-17T00:17:28.022Z,23.14
2022-08-17T00:19:54.701Z,23.11
2022-08-17T00:22:34.726Z,23.11
2022-08-17T00:25:07.208Z,23.08
2022-08-17T00:27:34.551Z,23.08
2022-08-17T00:30:01.263Z,23.09
2022-08-17T00:33:14.415Z,23.07
2022-08-17T00:35:18.394Z,23.04
2022-08-17T00:37:45.353Z,23.04
2022-08-17T00:40:14.417Z,23.04
2022-08-17T00:42:42.535Z,23.07
2022-08-17T00:45:12.398Z,23.08
2022-08-17T00:47:39.377Z,23.03
2022-08-17T00:50:10.284Z,23.05
2022-08-17T00:52:42.553Z,23.00
2022-08-17T00:55:09.495Z,22.98
2022-08-17T00:57:42.179Z,22.94
2022-08-17T01:00:21.414Z,22.90
2022-08-17T01:02:48.984Z,22.84
2022-08-17T01:05:19.969Z,22.79
2022-08-17T01:07:48.239Z,22.81
2022-08-17T01:11:00.423Z,22.82
2022-08-17T01:13:05.258Z,22.78
2022-08-17T01:15:36.503Z,22.79
2022-08-17T01:18:05.511Z,22.77
2022-08-17T01:20:34.468Z,22.78
2022-08-17T01:23:20.485Z,22.77
2022-08-17T01:25:51.212Z,22.74
2022-08-17T01:28:52.404Z,22.73
2022-08-17T01:31:08.434Z,22.72
2022-08-17T01:33:35.836Z,22.68
2022-08-17T01:36:04.474Z,22.64
2022-08-17T01:38:31.950Z,22.63
2022-08-17T01:41:03.370Z,22.61
2022-08-17T01:43:44.057Z,22.58
2022-08-17T01:46:21.889Z,22.58
2022-08-17T01:48:48.661Z,22.56
2022-08-17T01:51:16.065Z,22.55
2022-08-17T01:53:48.489Z,22.52
2022-08-17T01:56:18.437Z,22.49
2022-08-17T01:58:45.785Z,22.49
2022-08-17T02:01:14.904Z,22.46
2022-08-17T02:03:42.352Z,22.46
2022-08-17T02:06:28.329Z,22.43
2022-08-17T02:09:02.245Z,22.43
2022-08-17T02:11:32.425Z,22.43
2022-08-17T02:14:03.167Z,22.43
2022-08-17T02:16:37.687Z,22.43
2022-08-17T02:19:11.030Z,22.41
2022-08-17T02:21:39.201Z,22.39
2022-08-17T02:24:59.931Z,22.36
2022-08-17T02:27:10.107Z,22.40
2022-08-17T02:29:37.288Z,22.41
2022-08-17T02:32:05.096Z,22.49
2022-08-17T02:34:32.470Z,22.50
2022-08-17T02:36:59.342Z,22.47
2022-08-17T02:39:26.004Z,22.48
2022-08-17T02:42:01.801Z,22.47
2022-08-17T02:44:39.211Z,22.47
2022-08-17T02:47:09.491Z,22.51
2022-08-17T02:49:36.652Z,22.53
2022-08-17T02:52:06.999Z,22.55
2022-08-17T02:54:40.210Z,22.61
2022-08-17T02:57:10.447Z,22.66
2022-08-17T02:59:39.023Z,22.60
2022-08-17T03:02:11.304Z,22.63
2022-08-17T03:04:38.481Z,22.60
2022-08-17T03:07:05.439Z,22.58
2022-08-17T03:09:32.880Z,22.57
2022-08-17T03:12:12.984Z,22.57
2022-08-17T03:14:43.415Z,22.53
2022-08-17T03:17:16.998Z,22.49
2022-08-17T03:19:44.971Z,22.44
2022-08-17T03:22:36.873Z,22.42
2022-08-17T03:24:58.512Z,22.38
2022-08-17T03:27:25.294Z,22.39
2022-08-17T03:29:51.973Z,22.37
2022-08-17T03:32:20.757Z,22.32
2022-08-17T03:34:47.502Z,22.29
2022-08-17T03:37:14.787Z,22.27
2022-08-17T03:39:41.478Z,22.25
2022-08-17T03:42:31.278Z,22.23
2022-08-17T03:45:00.380Z,22.20
2022-08-17T03:47:45.696Z,22.18
2022-08-17T03:50:32.466Z,22.16
2022-08-17T03:53:18.476Z,22.15
2022-08-17T03:56:03.478Z,22.12
2022-08-17T03:58:30.165Z,22.13
2022-08-17T04:00:56.966Z,22.15
2022-08-17T04:03:23.930Z,22.15
2022-08-17T04:05:50.610Z,22.11
2022-08-17T04:08:17.260Z,22.16
2022-08-17T04:10:45.151Z,22.18
2022-08-17T04:13:12.900Z,22.22
2022-08-17T04:15:40.238Z,22.23
2022-08-17T04:18:07.729Z,22.27
2022-08-17T04:20:38.064Z,22.34
2022-08-17T04:23:07.005Z,22.38
2022-08-17T04:25:36.457Z,22.44
2022-08-17T04:28:05.097Z,22.51
2022-08-17T04:30:37.909Z,22.55
2022-08-17T04:33:10.204Z,22.59
2022-08-17T04:35:43.163Z,22.69
2022-08-17T04:38:18.000Z,22.70
2022-08-17T04:41:03.914Z,22.79
2022-08-17T04:43:32.556Z,22.86
2022-08-17T04:46:04.935Z,22.91
2022-08-17T04:48:37.783Z,22.98
2022-08-17T04:51:09.852Z,23.07
2022-08-17T04:53:37.671Z,23.17
2022-08-17T04:56:05.297Z,23.22
2022-08-17T04:58:32.264Z,23.31
2022-08-17T05:00:59.081Z,23.46
2022-08-17T05:03:25.940Z,23.61
2022-08-17T05:05:53.787Z,23.64
2022-08-17T05:08:21.485Z,23.71
2022-08-17T05:10:49.447Z,23.70
2022-08-17T05:13:22.999Z,23.74
2022-08-17T05:15:54.896Z,23.78
2022-08-17T05:18:22.308Z,23.89
2022-08-17T05:20:51.350Z,23.81
2022-08-17T05:23:21.240Z,23.89
2022-08-17T05:25:50.847Z,23.99
2022-08-17T05:28:20.035Z,24.00
2022-08-17T05:30:51.599Z,24.19
2022-08-17T05:33:24.401Z,24.20
2022-08-17T05:35:53.138Z,24.33
2022-08-17T05:38:22.449Z,24.23
2022-08-17T05:40:49.549Z,24.23
2022-08-17T05:43:23.834Z,24.38
2022-08-17T05:45:56.592Z,24.55
2022-08-17T05:48:35.605Z,24.49
2022-08-17T05:51:22.979Z,24.60
2022-08-17T05:54:19.914Z,24.70
2022-08-17T05:56:56.878Z,24.71
2022-08-17T05:59:42.446Z,24.83
2022-08-17T06:02:18.230Z,24.89
2022-08-17T06:04:50.610Z,24.89
2022-08-17T06:07:35.152Z,25.05
2022-08-17T06:10:24.705Z,25.16
2022-08-17T06:13:08.476Z,25.17
2022-08-17T06:15:56.744Z,25.58
2022-08-17T06:18:28.725Z,25.63
2022-08-17T06:21:01.789Z,25.70
2022-08-17T06:23:54.189Z,25.50
2022-08-17T06:26:38.493Z,25.58
2022-08-17T06:29:31.052Z,25.85
2022-08-17T06:31:57.816Z,25.87
2022-08-17T06:34:24.682Z,25.93
2022-08-17T06:37:15.422Z,26.43
2022-08-17T06:40:08.677Z,26.26
2022-08-17T06:43:06.003Z,26.36
2022-08-17T06:46:01.792Z,26.00
2022-08-17T06:48:42.517Z,26.52
2022-08-17T06:51:28.021Z,26.57
2022-08-17T06:54:15.300Z,26.58
2022-08-17T06:56:53.033Z,26.18
2022-08-17T06:59:55.490Z,26.44
2022-08-17T07:02:53.007Z,26.41
2022-08-17T07:05:46.895Z,26.80
2022-08-17T07:08:35.161Z,26.61
2022-08-17T07:11:06.845Z,26.53
2022-08-17T07:13:43.983Z,26.78
2022-08-17T07:16:27.506Z,26.73
2022-08-17T07:18:56.786Z,27.14
2022-08-17T07:21:34.594Z,27.43
2022-08-17T07:24:30.233Z,27.76
2022-08-17T07:27:09.981Z,27.82
2022-08-17T07:29:49.562Z,27.98
2022-08-17T07:32:20.204Z,28.33
2022-08-17T07:35:19.904Z,28.31
2022-08-17T07:38:25.485Z,28.43
2022-08-17T07:40:57.675Z,28.40
2022-08-17T07:43:38.151Z,28.32
2022-08-17T07:46:38.483Z,29.11
2022-08-17T07:49:07.922Z,28.98
2022-08-17T07:51:39.713Z,29.04
2022-08-17T07:54:15.564Z,29.12
2022-08-17T07:56:49.887Z,29.12
2022-08-17T07:59:23.757Z,28.85
2022-08-17T08:01:57.603Z,29.09
2022-08-17T08:07:16.797Z,29.47
2022-08-17T08:09:46.966Z,29.70
2022-08-17T08:12:33.882Z,30.06
2022-08-17T08:15:33.365Z,29.94
2022-08-17T08:18:03.054Z,29.76
2022-08-17T08:20:53.366Z,29.39
2022-08-17T08:23:37.506Z,29.68
2022-08-17T08:26:36.087Z,29.78
2022-08-17T08:29:19.288Z,29.68
2022-08-17T08:32:02.191Z,30.03
2022-08-17T08:35:01.547Z,30.26
2022-08-17T08:37:42.012Z,30.04
2022-08-17T08:40:44.339Z,30.63
2022-08-17T08:43:32.206Z,31.13
2022-08-17T08:46:20.884Z,30.55
2022-08-17T08:49:14.387Z,30.64
2022-08-17T08:52:03.165Z,30.55
2022-08-17T08:54:47.613Z,30.49
2022-08-17T08:57:32.919Z,30.36
2022-08-17T09:00:13.091Z,30.77
2022-08-17T09:02:58.549Z,30.95
2022-08-17T09:05:49.909Z,31.51
2022-08-17T09:08:40.978Z,31.09
2022-08-17T09:11:31.235Z,31.41
2022-08-17T09:14:22.125Z,31.90
2022-08-17T09:17:24.181Z,31.44
2022-08-17T09:20:01.210Z,31.59
2022-08-17T09:22:37.176Z,31.87
2022-08-17T09:25:10.070Z,31.92
2022-08-17T09:28:03.945Z,32.52
2022-08-17T09:31:10.298Z,32.35
2022-08-17T09:33:47.064Z,32.15
2022-08-17T09:36:22.967Z,32.25
2022-08-17T09:39:15.114Z,32.41
2022-08-17T09:41:50.403Z,32.25
2022-08-17T09:44:41.567Z,31.98
2022-08-17T09:47:32.392Z,32.23
2022-08-17T09:51:04.173Z,32.47
2022-08-17T09:53:14.633Z,32.64
2022-08-17T09:55:52.017Z,33.03
2022-08-17T09:58:29.615Z,32.70
2022-08-17T10:01:29.459Z,33.03
2022-08-17T10:04:15.593Z,33.03
2022-08-17T10:07:19.957Z,33.34
2022-08-17T10:09:49.533Z,33.42
2022-08-17T10:12:34.558Z,33.05
2022-08-17T10:15:09.574Z,33.55
2022-08-17T10:18:07.492Z,34.16
2022-08-17T10:20:42.970Z,33.85
2022-08-17T10:23:46.807Z,33.83
2022-08-17T10:26:23.146Z,33.96
2022-08-17T10:28:55.851Z,34.03
2022-08-17T10:31:39.782Z,33.78
2022-08-17T10:34:12.373Z,34.52
2022-08-17T10:36:48.377Z,33.91
2022-08-17T10:39:21.144Z,33.94
2022-08-17T10:41:52.962Z,34.22
2022-08-17T10:44:48.392Z,34.10
2022-08-17T10:47:18.741Z,34.31
2022-08-17T10:49:54.037Z,35.42
2022-08-17T10:52:21.825Z,35.28
2022-08-17T10:55:11.185Z,34.52
2022-08-17T10:57:43.783Z,34.99
2022-08-17T11:00:15.930Z,35.25
2022-08-17T11:02:54.531Z,34.63
2022-08-17T11:05:24.118Z,34.88
2022-08-17T11:08:22.185Z,35.08
2022-08-17T11:11:10.785Z,34.27
2022-08-17T11:13:52.467Z,34.13
2022-08-17T11:16:53.284Z,34.49
2022-08-17T11:19:56.617Z,34.78
2022-08-17T11:22:44.668Z,35.07
2022-08-17T11:25:20.473Z,35.64
2022-08-17T11:27:53.670Z,34.79
2022-08-17T11:30:54.598Z,35.00
2022-08-17T11:33:56.911Z,34.64
2022-08-17T11:36:38.861Z,34.80
2022-08-17T11:39:26.243Z,35.52
2022-08-17T11:41:58.123Z,35.40
2022-08-17T11:44:56.410Z,35.68
2022-08-17T11:48:26.123Z,36.27
2022-08-17T11:51:18.164Z,36.32
2022-08-17T11:53:45.886Z,37.19
2022-08-17T11:56:35.711Z,37.74
2022-08-17T11:59:02.910Z,37.84
2022-08-17T12:01:32.129Z,38.43
2022-08-17T12:04:19.042Z,38.07
2022-08-17T12:06:52.234Z,38.60
2022-08-17T12:09:24.953Z,37.66
2022-08-17T12:12:25.102Z,37.72
2022-08-17T12:15:12.924Z,38.32
2022-08-17T12:17:42.876Z,38.50
2022-08-17T12:20:12.685Z,38.67
2022-08-17T12:23:01.144Z,38.56
2022-08-17T12:25:49.349Z,38.86
2022-08-17T12:28:32.644Z,39.05
2022-08-17T12:31:06.417Z,39.30
2022-08-17T12:33:35.985Z,39.12
2022-08-17T12:36:08.738Z,38.99
2022-08-17T12:38:37.996Z,39.18
2022-08-17T12:41:26.384Z,40.19
2022-08-17T12:43:58.659Z,40.65
2022-08-17T12:46:25.782Z,40.77
2022-08-17T12:48:59.267Z,39.48
2022-08-17T12:51:29.185Z,37.05
2022-08-17T12:53:56.477Z,37.22
2022-08-17T12:56:23.238Z,37.14
2022-08-17T12:58:54.129Z,37.01
2022-08-17T13:01:23.492Z,37.08
2022-08-17T13:03:54.271Z,37.15
2022-08-17T13:06:29.078Z,37.84
2022-08-17T13:08:55.880Z,37.38
2022-08-17T13:11:24.942Z,38.58
2022-08-17T13:13:56.371Z,39.74
2022-08-17T13:16:30.715Z,40.64
2022-08-17T13:19:08.554Z,40.73
2022-08-17T13:21:37.937Z,40.35
2022-08-17T13:24:10.496Z,39.96
2022-08-17T13:26:49.616Z,39.60
2022-08-17T13:29:24.068Z,39.34
2022-08-17T13:32:02.730Z,39.45
2022-08-17T13:35:11.553Z,38.77
2022-08-17T13:37:34.364Z,38.51
2022-08-17T13:40:10.209Z,37.45
2022-08-17T13:42:52.627Z,36.29
2022-08-17T13:45:34.938Z,36.92
2022-08-17T13:48:13.816Z,37.54
2022-08-17T13:51:07.380Z,37.13
2022-08-17T13:53:56.688Z,37.28
2022-08-17T13:56:38.443Z,37.48
2022-08-17T13:59:15.834Z,36.88
2022-08-17T14:01:50.951Z,36.65
2022-08-17T14:04:27.896Z,36.28
2022-08-17T14:07:00.596Z,36.86
2022-08-17T14:09:37.222Z,36.85
2022-08-17T14:12:09.271Z,37.16
2022-08-17T14:14:36.462Z,37.28
2022-08-17T14:17:03.611Z,37.29
2022-08-17T14:19:30.313Z,37.18
2022-08-17T14:21:59.085Z,37.05
2022-08-17T14:24:32.027Z,37.17
2022-08-17T14:27:00.358Z,36.82
2022-08-17T14:29:29.139Z,36.82
2022-08-17T14:31:57.461Z,36.74
2022-08-17T14:34:25.649Z,36.86
2022-08-17T14:36:52.462Z,37.62
2022-08-17T14:39:19.731Z,38.20
2022-08-17T14:41:46.484Z,38.36
2022-08-17T14:44:13.488Z,38.81
2022-08-17T14:46:45.163Z,39.36
2022-08-17T14:49:13.199Z,39.71
2022-08-17T14:51:43.721Z,40.03
2022-08-17T14:54:11.559Z,39.77
2022-08-17T14:57:11.552Z,38.38
2022-08-17T14:59:45.061Z,38.67
2022-08-17T15:02:12.415Z,38.80
2022-08-17T15:04:44.923Z,38.96
2022-08-17T15:07:12.470Z,39.31
2022-08-17T15:09:39.294Z,39.28
2022-08-17T15:12:08.936Z,39.18
2022-08-17T15:14:36.291Z,37.85
2022-08-17T15:17:03.857Z,37.98
2022-08-17T15:19:30.875Z,38.29
2022-08-17T15:21:57.600Z,37.12
2022-08-17T15:24:24.238Z,36.48
2022-08-17T15:26:51.563Z,35.86
2022-08-17T15:29:18.420Z,36.02
2022-08-17T15:31:45.198Z,35.75
2022-08-17T15:34:11.957Z,35.93
2022-08-17T15:36:38.918Z,35.90
2022-08-17T15:39:15.830Z,35.43
2022-08-17T15:41:47.348Z,34.72
2022-08-17T15:44:30.075Z,34.38
2022-08-17T15:46:59.216Z,34.46
2022-08-17T15:49:25.861Z,34.19
2022-08-17T15:51:52.483Z,33.94
2022-08-17T15:54:22.850Z,33.94
2022-08-17T15:56:50.317Z,33.94
2022-08-17T15:59:16.950Z,33.88
2022-08-17T16:02:33.627Z,33.48
2022-08-17T16:04:31.768Z,33.36
2022-08-17T16:06:59.666Z,33.23
2022-08-17T16:09:26.468Z,33.14
2022-08-17T16:12:14.464Z,33.21
2022-08-17T16:14:41.220Z,33.13
2022-08-17T16:17:39.052Z,33.12
2022-08-17T16:19:56.215Z,33.00
2022-08-17T16:22:37.638Z,32.64
2022-08-17T16:25:08.690Z,32.62
2022-08-17T16:27:35.341Z,32.50
2022-08-17T16:30:02.314Z,32.45
2022-08-17T16:32:31.888Z,32.36
2022-08-17T16:35:11.280Z,32.35
2022-08-17T16:37:40.392Z,32.35
2022-08-17T16:40:13.854Z,32.30
2022-08-17T16:42:41.640Z,32.20
2022-08-17T16:45:13.842Z,32.10
2022-08-17T16:47:41.997Z,32.02
2022-08-17T16:50:14.066Z,31.97
2022-08-17T16:52:41.625Z,31.99
2022-08-17T16:55:10.525Z,32.06
2022-08-17T16:57:49.947Z,32.38
2022-08-17T17:00:19.406Z,32.48
2022-08-17T17:02:49.596Z,32.62
2022-08-17T17:05:43.546Z,32.59
2022-08-17T17:08:44.500Z,32.74
2022-08-17T17:11:19.384Z,32.83
2022-08-17T17:13:54.433Z,32.66
2022-08-17T17:16:47.088Z,32.63
2022-08-17T17:19:38.499Z,32.57
2022-08-17T17:22:26.766Z,32.38
2022-08-17T17:25:19.320Z,32.03
2022-08-17T17:28:00.875Z,31.75
2022-08-17T17:30:53.237Z,31.57
2022-08-17T17:33:25.091Z,31.38
2022-08-17T17:35:51.701Z,31.28
2022-08-17T17:38:29.470Z,31.17
2022-08-17T17:41:02.472Z,31.11
2022-08-17T17:43:40.182Z,30.99
2022-08-17T17:46:27.184Z,30.91
2022-08-17T17:48:56.839Z,30.80
2022-08-17T17:52:09.605Z,30.70
2022-08-17T17:55:15.814Z,30.57
2022-08-17T17:57:52.997Z,30.47
2022-08-17T18:00:30.395Z,30.38
2022-08-17T18:03:38.276Z,30.22
2022-08-17T18:06:14.999Z,30.12
2022-08-17T18:09:02.091Z,30.03
2022-08-17T18:12:10.688Z,29.95
2022-08-17T18:15:15.305Z,29.83
2022-08-17T18:18:10.737Z,29.75
2022-08-17T18:20:46.659Z,29.72
2022-08-17T18:23:27.634Z,29.68
2022-08-17T18:25:58.848Z,29.64
2022-08-17T18:28:41.407Z,29.59
2022-08-17T18:31:19.260Z,29.61
2022-08-17T18:33:52.858Z,29.54
2022-08-17T18:36:32.543Z,29.49
2022-08-17T18:39:18.349Z,29.47
2022-08-17T18:41:48.600Z,29.46
2022-08-17T18:44:37.834Z,29.40
2022-08-17T18:47:25.986Z,29.40
2022-08-17T18:49:57.808Z,29.35
2022-08-17T18:52:33.204Z,29.35
2022-08-17T18:54:59.854Z,29.33
2022-08-17T18:57:39.700Z,29.26
2022-08-17T19:00:19.308Z,29.16
2022-08-17T19:02:54.890Z,29.09
2022-08-17T19:05:41.058Z,29.05
2022-08-17T19:08:17.884Z,28.94
2022-08-17T19:10:47.399Z,28.90
2022-08-17T19:13:35.404Z,28.84
2022-08-17T19:16:15.057Z,28.79
2022-08-17T19:19:23.716Z,28.70
2022-08-17T19:21:56.244Z,28.67
2022-08-17T19:24:25.486Z,28.61
2022-08-17T19:27:41.825Z,28.56
2022-08-17T19:30:15.437Z,28.51
2022-08-17T19:32:42.585Z,28.48
2022-08-17T19:35:16.566Z,28.45
2022-08-17T19:38:19.293Z,28.42
2022-08-17T19:41:11.939Z,28.36
2022-08-17T19:43:55.717Z,28.29
2022-08-17T19:46:35.599Z,28.27
2022-08-17T19:49:22.745Z,28.24
2022-08-17T19:52:37.583Z,28.19
2022-08-17T19:55:26.218Z,28.18
2022-08-17T19:58:11.233Z,28.13
2022-08-17T20:00:50.484Z,28.08
2022-08-17T20:03:29.926Z,28.06
2022-08-17T20:06:15.525Z,28.01
2022-08-17T20:08:55.368Z,27.94
2022-08-17T20:11:31.446Z,27.89
2022-08-17T20:14:01.048Z,27.91
2022-08-17T20:16:27.795Z,27.90
2022-08-17T20:19:08.544Z,27.88
2022-08-17T20:22:15.440Z,27.85
2022-08-17T20:24:51.062Z,27.85
2022-08-17T20:27:31.908Z,27.85
2022-08-17T20:29:58.716Z,27.83
2022-08-17T20:32:32.992Z,27.84
2022-08-17T20:35:07.753Z,27.78
2022-08-17T20:37:35.941Z,27.75
2022-08-17T20:40:05.795Z,27.71
2022-08-17T20:42:34.252Z,27.66
2022-08-17T20:45:25.110Z,27.62
2022-08-17T20:48:30.582Z,27.59
2022-08-17T20:50:51.864Z,27.56
2022-08-17T20:53:46.568Z,27.59
2022-08-17T20:56:45.239Z,27.53
2022-08-17T20:59:21.308Z,27.48
2022-08-17T21:02:12.425Z,27.48
2022-08-17T21:04:57.439Z,27.42
2022-08-17T21:07:42.739Z,27.39
2022-08-17T21:10:35.691Z,27.35
2022-08-17T21:13:10.232Z,27.34
2022-08-17T21:15:54.400Z,27.34
2022-08-17T21:18:55.067Z,27.34
2022-08-17T21:21:33.644Z,27.29
2022-08-17T21:24:17.719Z,27.26
2022-08-17T21:27:02.239Z,27.14
2022-08-17T21:29:34.091Z,27.08
2022-08-17T21:32:08.998Z,27.04
2022-08-17T21:35:15.604Z,27.00
2022-08-17T21:37:44.935Z,26.95
2022-08-17T21:40:18.650Z,26.92
2022-08-17T21:42:52.752Z,26.89
2022-08-17T21:45:38.128Z,26.87
2022-08-17T21:48:20.438Z,26.84
2022-08-17T21:51:08.989Z,26.81
2022-08-17T21:53:51.253Z,26.79
2022-08-17T21:56:41.762Z,26.70
2022-08-17T21:59:35.700Z,26.65
2022-08-17T22:02:19.878Z,26.59
2022-08-17T22:05:06.989Z,26.56
2022-08-17T22:08:02.250Z,26.53
2022-08-17T22:10:41.793Z,26.51
2022-08-17T22:13:17.028Z,26.48
2022-08-17T22:15:47.723Z,26.45
2022-08-17T22:18:20.379Z,26.42
2022-08-17T22:20:55.756Z,26.41
2022-08-17T22:23:50.004Z,26.39
2022-08-17T22:26:20.001Z,26.33
2022-08-17T22:28:57.564Z,26.23
2022-08-17T22:31:32.719Z,26.19
2022-08-17T22:34:02.384Z,26.18
2022-08-17T22:36:42.261Z,26.13
2022-08-17T22:39:11.596Z,26.04
2022-08-17T22:41:59.474Z,25.91
2022-08-17T22:44:32.054Z,25.82
2022-08-17T22:47:49.185Z,25.70
2022-08-17T22:50:26.039Z,25.62
2022-08-17T22:53:19.557Z,25.58
2022-08-17T22:56:15.489Z,25.53
2022-08-17T22:59:09.875Z,25.53
2022-08-17T23:01:39.240Z,25.64
2022-08-17T23:04:32.961Z,25.68
2022-08-17T23:07:00.714Z,25.71
2022-08-17T23:09:29.937Z,25.70
2022-08-17T23:11:58.721Z,25.70
2022-08-17T23:14:35.054Z,25.64
2022-08-17T23:17:03.339Z,25.63
2022-08-17T23:19:32.812Z,25.59
2022-08-17T23:22:04.282Z,25.62
2022-08-17T23:24:35.611Z,25.61
2022-08-17T23:27:09.869Z,25.53
2022-08-17T23:29:42.357Z,25.51
2022-08-17T23:32:17.707Z,25.50
2022-08-17T23:34:47.038Z,25.45
2022-08-17T23:37:15.771Z,25.41
2022-08-17T23:39:45.159Z,25.34
2022-08-17T23:42:16.512Z,25.22
2022-08-17T23:44:44.828Z,25.18
2022-08-17T23:47:12.592Z,25.13
2022-08-17T23:49:42.368Z,25.16
2022-08-17T23:52:16.516Z,25.21
2022-08-17T23:54:47.315Z,25.28
2022-08-17T23:57:20.117Z,25.27
